Dobrodošli na spletni strani vremenske postaje Senovo. Vse informacije so informativnega značaja, saj vremenska postaja ni del državne mreže meteoroloških postaj. AKTUALNIH OBVESTIL NI.


Sneg/Led Od: 21-02-2018 00:00 Do: 23-02-2018 23:59 Opozorilo za: Sneg/Led Stopnja: Rumena info button
Veter Od: 21-02-2018 00:00 Do: 22-02-2018 23:59 Opozorilo za: Veter Stopnja: Rumena info button

Pogled proti Armezu več informacij Pogled proti Armezu


Lisca več informacij Lisca


Radar strel več informacij blitzortung!


opozorilo za sneg/led več informacij rain snow radar


Obiščite še:

Template documentation
and downloads

And another site



Weather Underground, zgodovina - Tekstovno

Dnevni povzetek za Januar 24, 2018 Enote:  Angleško    Metrično   Obe
« Predhodni Dan
Naslednji Dan »
Dnevni Tedenski Mesečni Letni Po meri
  Višja: Nižja: Povprečje:
Temperatura: TemperatureC °F -4.5 °F 0.5 °F
Točka rosišča: DewpointC °F -5.9 °F -2 °F
Vlažnost: Humidity % 63 % 83 %
Hitrost vetra: WindSpeedKMH mph 0.0 mph 1 mph
Sunki vetra: WindSpeedGustKMH mph - -
Veter:- - SSW
Zračni tlak: PressurehPa in 1026.0 in -
Padavine: 0.0 in    
Historical Graphs
 
 
Tabelarni podarki za Januar 24, 2018
Čas Temperatura Točka rosišča Zračni tlak Veter Hitrost vetra Sunki vetra Vlažnost Intenziteta padavin (urna)
TemperatureC °F DewpointC °F PressurehPa in Calm     Humidity % HourlyPrecipMM in
00:09 -2.9 °F -5.1 °F 1029.0 in Calm     85 % 0.0 in
00:14 -3.0 °F -5.2 °F 1029.0 in Calm     85 % 0.0 in
00:19 -3.0 °F -5.2 °F 1029.0 in Calm     85 % 0.0 in
00:24 -3.0 °F -5.2 °F 1029.0 in Calm     85 % 0.0 in
00:29 -3.0 °F -5.2 °F 1029.0 in Calm     85 % 0.0 in
00:34 -3.1 °F -5.1 °F 1029.0 in Calm     86 % 0.0 in
00:39 -3.1 °F -5.1 °F 1029.0 in Calm     86 % 0.0 in
00:44 -3.1 °F -5.1 °F 1030.0 in Calm     86 % 0.0 in
00:49 -3.1 °F -5.1 °F 1030.0 in Calm     86 % 0.0 in
00:54 -3.0 °F -5.0 °F 1030.0 in Calm     86 % 0.0 in
00:59 -2.9 °F -4.9 °F 1029.0 in Calm     86 % 0.0 in
01:09 -3.0 °F -5.0 °F 1029.0 in Calm     86 % 0.0 in
01:19 -2.9 °F -4.9 °F 1029.0 in Calm     86 % 0.0 in
01:24 -2.9 °F -4.9 °F 1029.0 in Calm     86 % 0.0 in
01:29 -2.8 °F -4.7 °F 1029.0 in Calm     87 % 0.0 in
01:34 -2.8 °F -4.7 °F 1029.0 in Calm     87 % 0.0 in
01:39 -2.6 °F -4.4 °F 1029.0 in Calm     87 % 0.0 in
01:44 -2.6 °F -4.4 °F 1029.0 in Calm     87 % 0.0 in
01:49 -2.5 °F -4.4 °F 1029.0 in Calm     87 % 0.0 in
01:54 -2.5 °F -4.4 °F 1029.0 in Calm     87 % 0.0 in
01:59 -2.5 °F -4.4 °F 1029.0 in Calm     87 % 0.0 in
02:09 -2.6 °F -4.3 °F 1029.0 in Calm     88 % 0.0 in
02:19 -2.7 °F -4.4 °F 1029.0 in Calm     88 % 0.0 in
02:24 -2.7 °F -4.4 °F 1029.0 in Calm     88 % 0.0 in
02:29 -2.8 °F -4.5 °F 1030.0 in Calm     88 % 0.0 in
02:34 -2.8 °F -4.5 °F 1030.0 in Calm     88 % 0.0 in
02:39 -2.9 °F -4.6 °F 1030.0 in Calm     88 % 0.0 in
02:44 -3.0 °F -4.7 °F 1029.0 in Calm     88 % 0.0 in
02:49 -3.0 °F -4.7 °F 1029.0 in Calm     88 % 0.0 in
02:54 -3.1 °F -4.8 °F 1029.0 in Calm     88 % 0.0 in
02:59 -3.1 °F -4.8 °F 1029.0 in Calm     88 % 0.0 in
03:04 -3.1 °F -4.8 °F 1029.0 in Calm     88 % 0.0 in
03:09 -3.2 °F -4.9 °F 1029.0 in Calm     88 % 0.0 in
03:14 -3.2 °F -4.9 °F 1028.0 in Calm     88 % 0.0 in
03:19 -3.2 °F -4.9 °F 1028.0 in Calm     88 % 0.0 in
03:29 -3.2 °F -4.9 °F 1028.0 in Calm     88 % 0.0 in
03:39 -3.3 °F -4.8 °F 1028.0 in Calm     89 % 0.0 in
03:49 -3.3 °F -4.8 °F 1029.0 in Calm     89 % 0.0 in
03:54 -3.3 °F -4.8 °F 1029.0 in Calm     89 % 0.0 in
04:04 -3.4 °F -4.9 °F 1029.0 in Calm     89 % 0.0 in
04:09 -3.4 °F -4.9 °F 1029.0 in Calm     89 % 0.0 in
04:14 -3.4 °F -4.9 °F 1029.0 in Calm     89 % 0.0 in
04:24 -3.5 °F -5.1 °F 1029.0 in Calm     89 % 0.0 in
04:29 -3.5 °F -5.1 °F 1029.0 in Calm     89 % 0.0 in
04:34 -3.5 °F -5.1 °F 1029.0 in Calm     89 % 0.0 in
04:39 -3.6 °F -5.2 °F 1029.0 in Calm     89 % 0.0 in
04:44 -3.6 °F -5.2 °F 1028.0 in Calm     89 % 0.0 in
04:49 -3.7 °F -5.2 °F 1028.0 in Calm     89 % 0.0 in
04:54 -3.7 °F -5.2 °F 1028.0 in Calm     89 % 0.0 in
04:59 -3.7 °F -5.2 °F 1028.0 in Calm     89 % 0.0 in
05:09 -3.8 °F -5.3 °F 1028.0 in Calm     89 % 0.0 in
05:14 -3.9 °F -5.4 °F 1028.0 in Calm     89 % 0.0 in
05:19 -3.9 °F -5.4 °F 1028.0 in Calm     89 % 0.0 in
05:24 -3.9 °F -5.4 °F 1028.0 in Calm     89 % 0.0 in
05:29 -3.9 °F -5.4 °F 1029.0 in Calm     89 % 0.0 in
05:34 -4.0 °F -5.4 °F 1029.0 in Calm     90 % 0.0 in
05:39 -4.0 °F -5.4 °F 1029.0 in Calm     90 % 0.0 in
05:44 -4.0 °F -5.4 °F 1028.0 in Calm     90 % 0.0 in
05:49 -4.1 °F -5.5 °F 1028.0 in Calm     90 % 0.0 in
05:54 -4.1 °F -5.5 °F 1028.0 in Calm     90 % 0.0 in
06:04 -4.1 °F -5.5 °F 1029.0 in Calm     90 % 0.0 in
06:09 -4.1 °F -5.5 °F 1029.0 in Calm     90 % 0.0 in
06:14 -4.2 °F -5.6 °F 1029.0 in Calm     90 % 0.0 in
06:19 -4.2 °F -5.6 °F 1029.0 in Calm     90 % 0.0 in
06:24 -4.2 °F -5.6 °F 1029.0 in Calm     90 % 0.0 in
06:39 -4.2 °F -5.6 °F 1029.0 in Calm     90 % 0.0 in
06:44 -4.3 °F -5.7 °F 1029.0 in Calm     90 % 0.0 in
06:49 -4.3 °F -5.7 °F 1029.0 in Calm     90 % 0.0 in
06:54 -4.3 °F -5.7 °F 1029.0 in Calm     90 % 0.0 in
06:59 -4.3 °F -5.7 °F 1029.0 in Calm     90 % 0.0 in
07:04 -4.3 °F -5.7 °F 1029.0 in Calm     90 % 0.0 in
07:09 -4.4 °F -5.8 °F 1029.0 in Calm     90 % 0.0 in
07:14 -4.4 °F -5.8 °F 1030.0 in Calm     90 % 0.0 in
07:24 -4.5 °F -5.9 °F 1030.0 in Calm     90 % 0.0 in
07:34 -4.5 °F -5.9 °F 1029.0 in Calm     90 % 0.0 in
07:39 -4.5 °F -5.9 °F 1029.0 in Calm     90 % 0.0 in
07:44 -4.5 °F -5.9 °F 1028.0 in Calm     90 % 0.0 in
07:54 -4.5 °F -5.9 °F 1028.0 in Calm     90 % 0.0 in
07:59 -4.5 °F -5.9 °F 1029.0 in Calm     90 % 0.0 in
08:04 -4.5 °F -5.9 °F 1029.0 in Calm     90 % 0.0 in
08:09 -4.5 °F -5.9 °F 1029.0 in Calm     90 % 0.0 in
08:14 -4.5 °F -5.9 °F 1029.0 in Calm     90 % 0.0 in
08:19 -4.4 °F -5.8 °F 1029.0 in Calm     90 % 0.0 in
08:24 -4.3 °F -5.7 °F 1029.0 in WNW 0.2 mph 2.6 mph 90 % 0.0 in
08:34 -4.1 °F -5.5 °F 1029.0 in WNW 0.3 mph 1.8 mph 90 % 0.0 in
08:44 -3.9 °F -5.3 °F 1029.0 in Calm     90 % 0.0 in
08:54 -3.6 °F -5.0 °F 1029.0 in Calm     90 % 0.0 in
09:04 -3.2 °F -4.4 °F 1029.0 in Calm     91 % 0.0 in
09:09 -3.1 °F -4.4 °F 1029.0 in Calm     91 % 0.0 in
09:14 -2.9 °F -4.2 °F 1029.0 in Calm   1.8 mph 91 % 0.0 in
09:19 -2.7 °F -3.9 °F 1029.0 in SE 0.2 mph 2.1 mph 91 % 0.0 in
09:29 -2.3 °F -3.6 °F 1029.0 in SE 1.3 mph 2.6 mph 91 % 0.0 in
09:34 -2.0 °F -3.3 °F 1029.0 in SE 0.3 mph 2.1 mph 91 % 0.0 in
09:39 -1.9 °F -3.2 °F 1029.0 in Calm     91 % 0.0 in
09:44 -1.6 °F -2.9 °F 1029.0 in Calm     91 % 0.0 in
09:49 -1.4 °F -2.6 °F 1029.0 in Calm   1.8 mph 92 % 0.0 in
09:54 -1.2 °F -2.3 °F 1029.0 in SSE 0.3 mph 2.6 mph 92 % 0.0 in
09:59 -1.0 °F -2.1 °F 1029.0 in SSE 1.3 mph 3.2 mph 92 % 0.0 in
10:04 -0.7 °F -1.8 °F 1029.0 in SSE 1.6 mph 3.2 mph 92 % 0.0 in
10:09 -0.5 °F -1.7 °F 1029.0 in SSE 1.3 mph 2.6 mph 92 % 0.0 in
10:19 0.1 °F -0.9 °F 1028.0 in SE 1.1 mph 3.5 mph 93 % 0.0 in
10:24 0.3 °F -0.7 °F 1028.0 in SSE 1.6 mph 3.5 mph 93 % 0.0 in
10:29 0.6 °F -0.4 °F 1028.0 in SSE 1.8 mph 3.5 mph 93 % 0.0 in
10:34 0.8 °F -0.2 °F 1028.0 in SE 1.9 mph 4.7 mph 93 % 0.0 in
10:39 1.0 °F 0.0 °F 1028.0 in SE 2.7 mph 4.7 mph 93 % 0.0 in
10:44 1.3 °F 0.4 °F 1029.0 in SE 3.1 mph 4.7 mph 94 % 0.0 in
10:49 1.6 °F 0.7 °F 1029.0 in SE 1.9 mph 4.7 mph 94 % 0.0 in
10:54 1.9 °F 1.1 °F 1029.0 in ESE 1.9 mph 5.0 mph 94 % 0.0 in
10:59 2.2 °F 1.3 °F 1029.0 in SE 2.6 mph 5.0 mph 94 % 0.0 in
11:04 2.5 °F 1.6 °F 1029.0 in SE 2.3 mph 4.7 mph 94 % 0.0 in
11:09 2.7 °F 1.8 °F 1029.0 in ESE 3.2 mph 4.7 mph 94 % 0.0 in
11:14 3.1 °F 2.2 °F 1029.0 in SE 3.7 mph 4.7 mph 94 % 0.0 in
11:19 3.3 °F 2.4 °F 1029.0 in SE 3.9 mph 6.9 mph 94 % 0.0 in
11:24 3.5 °F 2.6 °F 1029.0 in SSE 4.8 mph 7.9 mph 94 % 0.0 in
11:29 3.6 °F 2.7 °F 1029.0 in SSE 4.7 mph 7.9 mph 94 % 0.0 in
11:34 3.9 °F 3.0 °F 1029.0 in SSE 3.9 mph 5.8 mph 94 % 0.0 in
11:39 4.1 °F 3.2 °F 1029.0 in SSE 3.4 mph 5.8 mph 94 % 0.0 in
11:44 4.7 °F 3.8 °F 1029.0 in SSE 2.7 mph 4.7 mph 94 % 0.0 in
11:49 5.0 °F 4.1 °F 1029.0 in SE 2.3 mph 4.7 mph 94 % 0.0 in
11:54 5.1 °F 4.2 °F 1029.0 in SE 2.9 mph 5.0 mph 94 % 0.0 in
11:59 5.6 °F 4.7 °F 1029.0 in SE 3.7 mph 5.5 mph 94 % 0.0 in
12:04 5.8 °F 4.9 °F 1029.0 in SE 3.4 mph 6.4 mph 94 % 0.0 in
12:09 6.1 °F 5.2 °F 1029.0 in SSE 3.4 mph 6.4 mph 94 % 0.0 in
12:14 6.4 °F 5.3 °F 1029.0 in South 3.2 mph 5.0 mph 93 % 0.0 in
12:19 6.6 °F 5.6 °F 1029.0 in South 3.2 mph 5.8 mph 93 % 0.0 in
12:24 6.8 °F 5.7 °F 1029.0 in SSE 4.2 mph 6.1 mph 93 % 0.0 in
12:29 7.0 °F 5.8 °F 1029.0 in SSE 4.3 mph 6.4 mph 92 % 0.0 in
12:34 7.3 °F 6.1 °F 1029.0 in SSE 4.3 mph 6.4 mph 92 % 0.0 in
12:39 7.4 °F 6.2 °F 1029.0 in SSE 3.7 mph 6.1 mph 92 % 0.0 in
12:44 7.7 °F 6.3 °F 1028.0 in South 2.6 mph 4.3 mph 91 % 0.0 in
12:49 7.8 °F 6.3 °F 1028.0 in SSE 2.1 mph 4.3 mph 90 % 0.0 in
12:54 7.9 °F 6.3 °F 1028.0 in SSE 2.6 mph 6.1 mph 90 % 0.0 in
12:59 8.2 °F 6.3 °F 1028.0 in South 3.9 mph 6.1 mph 88 % 0.0 in
13:04 8.3 °F 6.3 °F 1028.0 in SSW 2.9 mph 5.5 mph 87 % 0.0 in
13:09 8.4 °F 6.3 °F 1028.0 in SSE 2.6 mph 5.8 mph 87 % 0.0 in
13:14 8.5 °F 6.3 °F 1028.0 in SSE 3.9 mph 6.1 mph 86 % 0.0 in
13:19 8.5 °F 6.1 °F 1028.0 in SSE 4.0 mph 6.1 mph 85 % 0.0 in
13:24 8.5 °F 5.9 °F 1028.0 in SSE 3.5 mph 5.0 mph 84 % 0.0 in
13:29 8.6 °F 5.9 °F 1028.0 in South 2.9 mph 5.8 mph 83 % 0.0 in
13:34 8.6 °F 5.7 °F 1028.0 in SSW 2.6 mph 5.8 mph 82 % 0.0 in
13:39 8.6 °F 5.5 °F 1028.0 in SSW 2.9 mph 5.5 mph 81 % 0.0 in
13:44 8.5 °F 5.2 °F 1028.0 in SSW 2.7 mph 5.5 mph 80 % 0.0 in
13:49 8.5 °F 5.1 °F 1028.0 in SSW 3.1 mph 7.2 mph 79 % 0.0 in
13:54 8.6 °F 5.0 °F 1028.0 in South 4.2 mph 7.2 mph 78 % 0.0 in
13:59 8.7 °F 4.9 °F 1028.0 in SSE 4.2 mph 5.8 mph 77 % 0.0 in
14:04 8.8 °F 4.8 °F 1028.0 in SSE 3.9 mph 8.7 mph 76 % 0.0 in
14:09 8.9 °F 4.9 °F 1028.0 in SSE 4.8 mph 8.7 mph 76 % 0.0 in
14:14 9.0 °F 4.6 °F 1027.0 in SSE 5.0 mph 7.6 mph 74 % 0.0 in
14:19 9.1 °F 4.7 °F 1027.0 in South 3.9 mph 5.5 mph 74 % 0.0 in
14:24 9.1 °F 4.5 °F 1027.0 in SSE 2.9 mph 5.5 mph 73 % 0.0 in
14:29 9.3 °F 4.5 °F 1027.0 in SSE 2.1 mph 5.5 mph 72 % 0.0 in
14:34 9.3 °F 4.5 °F 1027.0 in SSE 3.2 mph 6.4 mph 72 % 0.0 in
14:39 9.3 °F 4.3 °F 1027.0 in SSE 3.9 mph 6.4 mph 71 % 0.0 in
14:44 9.4 °F 4.2 °F 1028.0 in SSE 2.6 mph 4.7 mph 70 % 0.0 in
14:59 9.7 °F 4.3 °F 1027.0 in SSE 4.0 mph 6.9 mph 69 % 0.0 in
15:04 9.8 °F 4.2 °F 1027.0 in South 3.4 mph 6.9 mph 68 % 0.0 in
15:09 9.7 °F 3.9 °F 1027.0 in South 1.8 mph 4.7 mph 67 % 0.0 in
15:14 9.6 °F 3.8 °F 1027.0 in SSW 1.0 mph 4.7 mph 67 % 0.0 in
15:19 9.5 °F 3.4 °F 1027.0 in SSW 1.1 mph 5.0 mph 66 % 0.0 in
15:24 9.5 °F 3.2 °F 1027.0 in SSW 1.1 mph 5.0 mph 65 % 0.0 in
15:29 9.2 °F 2.9 °F 1027.0 in SSW 2.1 mph 6.4 mph 65 % 0.0 in
15:34 8.9 °F 2.7 °F 1027.0 in SSW 3.7 mph 6.4 mph 65 % 0.0 in
15:44 8.3 °F 1.7 °F 1027.0 in South 4.2 mph 7.6 mph 63 % 0.0 in
15:49 8.0 °F 1.4 °F 1027.0 in SSW 4.2 mph 6.9 mph 63 % 0.0 in
15:54 7.4 °F 0.8 °F 1027.0 in SSW 4.3 mph 6.9 mph 63 % 0.0 in
15:59 6.9 °F 0.3 °F 1027.0 in SW 3.7 mph 6.4 mph 63 % 0.0 in
16:04 6.5 °F -0.1 °F 1027.0 in NW 2.1 mph 5.0 mph 63 % 0.0 in
16:09 6.0 °F -0.5 °F 1027.0 in NW 1.9 mph 5.5 mph 63 % 0.0 in
16:14 5.6 °F -0.9 °F 1027.0 in NW 2.4 mph 5.5 mph 63 % 0.0 in
16:19 5.4 °F -1.1 °F 1027.0 in NW 1.9 mph 6.9 mph 63 % 0.0 in
16:24 5.0 °F -1.3 °F 1027.0 in NW 3.1 mph 6.9 mph 64 % 0.0 in
16:29 4.8 °F -1.2 °F 1027.0 in NW 3.9 mph 6.9 mph 65 % 0.0 in
16:34 4.7 °F -1.3 °F 1027.0 in NW 2.3 mph 4.7 mph 65 % 0.0 in
16:39 4.3 °F -1.5 °F 1027.0 in NW 1.6 mph 4.3 mph 66 % 0.0 in
16:54 3.7 °F -1.9 °F 1027.0 in NW 0.5 mph 4.3 mph 67 % 0.0 in
16:59 3.6 °F -1.8 °F 1028.0 in NW 0.8 mph 4.3 mph 68 % 0.0 in
17:04 3.4 °F -1.9 °F 1028.0 in NW 0.5 mph 4.3 mph 68 % 0.0 in
17:09 3.2 °F -1.9 °F 1028.0 in SW 0.2 mph 2.6 mph 69 % 0.0 in
17:14 3.0 °F -2.1 °F 1028.0 in Calm     69 % 0.0 in
17:19 2.9 °F -2.1 °F 1028.0 in Calm   3.2 mph 70 % 0.0 in
17:24 2.7 °F -2.2 °F 1028.0 in NW 0.5 mph 4.3 mph 70 % 0.0 in
17:29 2.6 °F -2.1 °F 1028.0 in WNW 0.5 mph 4.3 mph 71 % 0.0 in
17:34 2.4 °F -2.3 °F 1028.0 in WSW 0.3 mph 3.5 mph 71 % 0.0 in
17:39 2.3 °F -2.4 °F 1028.0 in WSW 0.3 mph 3.5 mph 71 % 0.0 in
17:44 2.1 °F -2.4 °F 1027.0 in NW 0.2 mph 2.1 mph 72 % 0.0 in
17:49 2.1 °F -2.4 °F 1027.0 in Calm     72 % 0.0 in
17:59 1.8 °F -2.6 °F 1027.0 in Calm     73 % 0.0 in
18:04 1.7 °F -2.6 °F 1027.0 in Calm     73 % 0.0 in
18:19 1.3 °F -2.8 °F 1028.0 in Calm     74 % 0.0 in
18:29 1.1 °F -2.8 °F 1028.0 in Calm     75 % 0.0 in
18:34 1.0 °F -2.9 °F 1028.0 in Calm     75 % 0.0 in
18:39 0.9 °F -3.1 °F 1028.0 in Calm     75 % 0.0 in
18:44 0.8 °F -2.9 °F 1028.0 in Calm     76 % 0.0 in
18:49 0.7 °F -3.1 °F 1028.0 in Calm     76 % 0.0 in
18:54 0.7 °F -3.1 °F 1028.0 in Calm     76 % 0.0 in
18:59 0.6 °F -3.2 °F 1028.0 in Calm     76 % 0.0 in
19:04 0.5 °F -3.1 °F 1028.0 in Calm     77 % 0.0 in
19:09 0.4 °F -3.2 °F 1028.0 in Calm     77 % 0.0 in
19:24 0.3 °F -3.3 °F 1028.0 in Calm     77 % 0.0 in
19:34 0.2 °F -3.2 °F 1027.0 in Calm     78 % 0.0 in
19:39 0.1 °F -3.3 °F 1027.0 in Calm     78 % 0.0 in
19:44 0.0 °F -3.4 °F 1027.0 in Calm     78 % 0.0 in
19:49 0.0 °F -3.4 °F 1027.0 in Calm     78 % 0.0 in
19:59 -0.2 °F -3.4 °F 1027.0 in Calm     79 % 0.0 in
20:04 -0.2 °F -3.4 °F 1027.0 in Calm     79 % 0.0 in
20:09 -0.3 °F -3.5 °F 1027.0 in Calm     79 % 0.0 in
20:19 -0.4 °F -3.6 °F 1027.0 in Calm     79 % 0.0 in
20:24 -0.5 °F -3.7 °F 1027.0 in Calm     79 % 0.0 in
20:29 -0.5 °F -3.5 °F 1026.0 in Calm     80 % 0.0 in
20:34 -0.6 °F -3.6 °F 1026.0 in Calm     80 % 0.0 in
20:39 -0.6 °F -3.6 °F 1026.0 in Calm     80 % 0.0 in
20:44 -0.7 °F -3.7 °F 1027.0 in Calm     80 % 0.0 in
20:49 -0.8 °F -3.8 °F 1027.0 in Calm     80 % 0.0 in
20:59 -0.9 °F -3.9 °F 1026.0 in Calm     80 % 0.0 in
21:04 -0.9 °F -3.8 °F 1026.0 in Calm     81 % 0.0 in
21:14 -1.0 °F -3.7 °F 1027.0 in Calm     82 % 0.0 in
21:19 -1.1 °F -3.8 °F 1027.0 in Calm     82 % 0.0 in
21:24 -1.1 °F -3.8 °F 1027.0 in Calm     82 % 0.0 in
21:29 -1.2 °F -3.9 °F 1027.0 in Calm     82 % 0.0 in
21:34 -1.2 °F -3.9 °F 1027.0 in Calm     82 % 0.0 in
21:39 -1.3 °F -4.0 °F 1027.0 in Calm     82 % 0.0 in
21:44 -1.3 °F -3.8 °F 1027.0 in Calm     83 % 0.0 in
21:49 -1.3 °F -3.8 °F 1027.0 in Calm     83 % 0.0 in
21:54 -1.4 °F -3.9 °F 1027.0 in Calm     83 % 0.0 in
21:59 -1.4 °F -3.9 °F 1027.0 in Calm     83 % 0.0 in
22:04 -1.4 °F -3.9 °F 1027.0 in Calm     83 % 0.0 in
22:05 -1.4 °F -3.9 °F 1027.0 in Calm     83 % 0.0 in
22:10 -1.4 °F -3.9 °F 1027.0 in Calm     83 % 0.0 in
22:15 -1.4 °F -3.8 °F 1027.0 in Calm     84 % 0.0 in
22:20 -1.5 °F -3.8 °F 1027.0 in Calm     84 % 0.0 in
22:25 -1.5 °F -3.8 °F 1027.0 in Calm     84 % 0.0 in
22:30 -1.6 °F -3.9 °F 1027.0 in Calm     84 % 0.0 in
22:35 -1.6 °F -3.9 °F 1027.0 in Calm     84 % 0.0 in
22:40 -1.6 °F -3.9 °F 1027.0 in Calm     84 % 0.0 in
22:45 -1.7 °F -4.1 °F 1027.0 in Calm     84 % 0.0 in
22:50 -1.7 °F -3.9 °F 1027.0 in Calm     85 % 0.0 in
22:55 -1.8 °F -4.0 °F 1026.0 in Calm     85 % 0.0 in
23:00 -1.9 °F -4.1 °F 1026.0 in Calm     85 % 0.0 in
23:05 -1.9 °F -4.1 °F 1026.0 in Calm     85 % 0.0 in
23:10 -1.9 °F -4.1 °F 1027.0 in Calm     85 % 0.0 in
23:15 -1.9 °F -4.1 °F 1027.0 in Calm     85 % 0.0 in
23:20 -2.0 °F -4.1 °F 1027.0 in Calm     86 % 0.0 in
23:25 -2.0 °F -4.1 °F 1026.0 in Calm     86 % 0.0 in
23:31 -2.0 °F -4.1 °F 1026.0 in Calm     86 % 0.0 in
23:35 -2.1 °F -4.1 °F 1026.0 in Calm     86 % 0.0 in
23:40 -2.1 °F -4.1 °F 1026.0 in Calm     86 % 0.0 in
23:45 -2.1 °F -4.1 °F 1026.0 in Calm     86 % 0.0 in
23:50 -2.1 °F -4.1 °F 1026.0 in West 0.3 mph 4.0 mph 86 % 0.0 in
23:55 -2.1 °F -4.1 °F 1026.0 in West 0.8 mph 4.0 mph 86 % 0.0 in
Vremenska postaja Senovo
Podatki zbrani iz Weather Underground - 2.75 mb

Script developed by  Jim McMurry - jmcmurry@mwt.net Adapted for the template by  Wim van der Kuil - Leuven-Template.eu

Vremenski podatki so objavljeni na:

European Weather Network

WeatherCloud

Weather Underground

AWEKAS

HAMweather, WeatherForYou, PWS Weather

MapView

Geostik

Slovenia weather network

Oprema, ki se uporablja:

Vremenski program
Cumulus

Vremenski server
Asus

Cumulus

Asus